createdAt,value
2022-09-01T00:01:59.660Z,4.97
2022-09-01T00:04:44.748Z,5.23
2022-09-01T00:06:48.216Z,5.40
2022-09-01T00:08:49.891Z,4.63
2022-09-01T00:10:51.561Z,4.30
2022-09-01T00:12:54.669Z,5.20
2022-09-01T00:14:56.755Z,5.20
2022-09-01T00:16:59.830Z,5.10
2022-09-01T00:19:05.637Z,5.17
2022-09-01T00:21:07.231Z,4.90
2022-09-01T00:23:09.220Z,5.20
2022-09-01T00:25:46.878Z,5.40
2022-09-01T00:27:52.196Z,4.90
2022-09-01T00:29:55.147Z,4.63
2022-09-01T00:31:56.801Z,5.20
2022-09-01T00:33:59.406Z,4.90
2022-09-01T00:36:01.065Z,5.40
2022-09-01T00:38:02.745Z,5.10
2022-09-01T00:40:06.144Z,4.80
2022-09-01T00:42:08.065Z,6.63
2022-09-01T00:44:13.104Z,5.80
2022-09-01T00:46:29.018Z,6.43
2022-09-01T00:48:30.918Z,5.83
2022-09-01T00:50:32.639Z,6.43
2022-09-01T00:52:36.239Z,5.20
2022-09-01T00:54:41.529Z,5.83
2022-09-01T00:56:46.402Z,5.93
2022-09-01T00:58:48.648Z,5.73
2022-09-01T01:00:52.476Z,6.37
2022-09-01T01:02:55.953Z,6.03
2022-09-01T01:04:57.923Z,6.00
2022-09-01T01:07:27.285Z,6.00
2022-09-01T01:09:39.959Z,5.77
2022-09-01T01:11:41.830Z,5.43
2022-09-01T01:13:51.784Z,5.77
2022-09-01T01:15:53.372Z,5.77
2022-09-01T01:17:56.323Z,4.90
2022-09-01T01:19:58.685Z,5.90
2022-09-01T01:22:02.230Z,6.10
2022-09-01T01:24:12.451Z,4.70
2022-09-01T01:26:16.973Z,5.40
2022-09-01T01:28:40.420Z,5.20
2022-09-01T01:30:49.443Z,6.00
2022-09-01T01:32:51.260Z,5.93
2022-09-01T01:34:52.843Z,5.63
2022-09-01T01:36:54.681Z,5.87
2022-09-01T01:38:56.308Z,6.00
2022-09-01T01:40:57.895Z,5.30
2022-09-01T01:43:00.877Z,5.53
2022-09-01T01:45:02.425Z,4.90
2022-09-01T01:47:06.524Z,4.80
2022-09-01T01:49:08.380Z,5.67
2022-09-01T01:51:37.256Z,6.07
2022-09-01T01:53:48.524Z,6.27
2022-09-01T01:55:50.407Z,6.43
2022-09-01T01:57:51.978Z,5.50
2022-09-01T01:59:56.698Z,5.40
2022-09-01T02:01:58.363Z,4.90
2022-09-01T02:04:00.987Z,5.77
2022-09-01T02:06:02.643Z,5.53
2022-09-01T02:08:06.393Z,6.50
2022-09-01T02:10:08.678Z,5.80
2022-09-01T02:12:10.324Z,6.40
2022-09-01T02:14:12.378Z,6.20
2022-09-01T02:16:15.912Z,5.10
2022-09-01T02:18:25.520Z,6.13
2022-09-01T02:20:27.251Z,7.50
2022-09-01T02:22:28.818Z,6.80
2022-09-01T02:24:30.376Z,5.87
2022-09-01T02:26:34.601Z,5.37
2022-09-01T02:28:40.338Z,6.37
2022-09-01T02:30:42.293Z,7.70
2022-09-01T02:32:45.243Z,5.90
2022-09-01T02:34:48.619Z,6.17
2022-09-01T02:39:38.224Z,6.13
2022-09-01T02:41:39.790Z,6.20
2022-09-01T02:43:42.142Z,5.80
2022-09-01T02:45:43.711Z,7.60
2022-09-01T02:47:47.278Z,6.77
2022-09-01T02:49:50.055Z,7.00
2022-09-01T02:51:53.315Z,6.90
2022-09-01T02:53:55.035Z,6.67
2022-09-01T02:56:17.412Z,5.90
2022-09-01T02:58:19.165Z,6.97
2022-09-01T03:00:21.258Z,6.83
2022-09-01T03:02:22.819Z,6.23
2022-09-01T03:04:26.045Z,6.43
2022-09-01T03:06:28.038Z,5.60
2022-09-01T03:08:29.677Z,7.13
2022-09-01T03:10:33.903Z,5.90
2022-09-01T03:12:54.672Z,6.80
2022-09-01T03:17:28.616Z,6.70
2022-09-01T03:19:31.579Z,5.73
2022-09-01T03:21:33.276Z,6.93
2022-09-01T03:23:35.100Z,6.10
2022-09-01T03:25:37.469Z,5.60
2022-09-01T03:27:39.113Z,6.57
2022-09-01T03:29:40.666Z,6.43
2022-09-01T03:31:42.418Z,7.97
2022-09-01T03:33:49.715Z,8.00
2022-09-01T03:35:52.750Z,7.97
2022-09-01T03:37:54.607Z,6.80
2022-09-01T03:39:56.473Z,6.27
2022-09-01T03:42:00.716Z,7.50
2022-09-01T03:44:02.520Z,6.80
2022-09-01T03:46:04.201Z,7.13
2022-09-01T03:48:07.568Z,7.37
2022-09-01T03:50:27.916Z,6.13
2022-09-01T03:53:00.767Z,8.10
2022-09-01T03:55:02.486Z,6.33
2022-09-01T03:57:07.015Z,6.93
2022-09-01T03:59:09.006Z,7.13
2022-09-01T04:01:11.090Z,6.60
2022-09-01T04:03:17.332Z,5.83
2022-09-01T04:05:22.639Z,6.33
2022-09-01T04:07:34.925Z,7.13
2022-09-01T04:09:52.086Z,6.37
2022-09-01T04:11:54.590Z,6.93
2022-09-01T04:13:56.246Z,6.70
2022-09-01T04:15:58.636Z,6.37
2022-09-01T04:18:00.550Z,7.30
2022-09-01T04:20:06.256Z,7.23
2022-09-01T04:22:07.853Z,7.73
2022-09-01T04:24:10.186Z,6.80
2022-09-01T04:26:13.974Z,7.30
2022-09-01T04:28:45.584Z,8.60
2022-09-01T04:30:47.259Z,7.30
2022-09-01T04:32:54.451Z,7.47
2022-09-01T04:34:55.981Z,7.00
2022-09-01T04:36:57.542Z,8.27
2022-09-01T04:39:00.775Z,9.03
2022-09-01T04:41:04.311Z,7.37
2022-09-01T04:43:08.604Z,6.93
2022-09-01T04:45:33.906Z,6.63
2022-09-01T04:47:39.129Z,6.57
2022-09-01T04:49:40.721Z,7.30
2022-09-01T04:51:44.614Z,7.73
2022-09-01T04:53:46.307Z,6.90
2022-09-01T04:55:49.728Z,7.00
2022-09-01T04:57:51.595Z,7.07
2022-09-01T04:59:54.883Z,7.27
2022-09-01T05:05:05.288Z,6.87
2022-09-01T05:07:07.213Z,6.90
2022-09-01T05:09:09.893Z,7.77
2022-09-01T05:11:12.699Z,8.80
2022-09-01T05:13:15.796Z,6.87
2022-09-01T05:15:19.312Z,7.20
2022-09-01T05:17:23.455Z,7.10
2022-09-01T05:19:53.386Z,7.60
2022-09-01T05:24:38.530Z,7.60
2022-09-01T05:26:43.794Z,8.90
2022-09-01T05:28:46.749Z,10.50
2022-09-01T05:30:52.152Z,8.90
2022-09-01T05:32:53.704Z,9.00
2022-09-01T05:34:55.442Z,8.23
2022-09-01T05:36:59.920Z,5.90
2022-09-01T05:39:20.125Z,6.97
2022-09-01T05:41:28.045Z,7.97
2022-09-01T05:43:30.711Z,7.23
2022-09-01T05:45:56.308Z,6.20
2022-09-01T05:47:59.276Z,6.43
2022-09-01T05:50:00.808Z,7.07
2022-09-01T05:52:02.922Z,6.73
2022-09-01T05:54:05.391Z,6.70
2022-09-01T05:56:09.560Z,7.57
2022-09-01T05:59:22.581Z,7.27
2022-09-01T06:01:08.452Z,7.13
2022-09-01T06:03:11.875Z,7.13
2022-09-01T06:05:13.520Z,7.17
2022-09-01T06:07:16.652Z,6.80
2022-09-01T06:09:18.956Z,7.20
2022-09-01T06:11:20.615Z,7.60
2022-09-01T06:13:25.782Z,6.67
2022-09-01T06:15:29.349Z,6.67
2022-09-01T06:17:34.664Z,6.97
2022-09-01T06:19:39.951Z,6.80
2022-09-01T06:21:49.098Z,6.20
2022-09-01T06:23:51.955Z,7.13
2022-09-01T06:25:56.234Z,6.80
2022-09-01T06:27:58.190Z,7.80
2022-09-01T06:29:59.990Z,9.10
2022-09-01T06:32:04.473Z,7.70
2022-09-01T06:34:07.999Z,7.07
2022-09-01T06:36:13.457Z,7.00
2022-09-01T06:38:18.588Z,7.50
2022-09-01T06:40:25.685Z,6.20
2022-09-01T06:42:27.615Z,6.83
2022-09-01T06:44:29.390Z,6.17
2022-09-01T06:46:30.989Z,5.43
2022-09-01T06:48:32.586Z,5.97
2022-09-01T06:55:18.735Z,5.83
2022-09-01T07:00:14.980Z,6.20
2022-09-01T07:02:18.682Z,5.90
2022-09-01T07:04:20.413Z,6.07
2022-09-01T07:11:22.137Z,5.80
2022-09-01T07:13:38.746Z,6.40
2022-09-01T07:21:36.621Z,6.50
2022-09-01T07:23:09.439Z,6.40
2022-09-01T07:25:13.054Z,6.90
2022-09-01T07:27:15.020Z,6.27
2022-09-01T07:29:18.125Z,6.30
2022-09-01T07:33:44.648Z,6.80
2022-09-01T07:36:29.476Z,6.03
2022-09-01T07:43:20.006Z,6.10
2022-09-01T07:45:29.143Z,6.10
2022-09-01T07:50:12.544Z,6.40
2022-09-01T07:52:14.039Z,6.40
2022-09-01T07:54:24.239Z,6.80
2022-09-01T07:56:28.108Z,6.60
2022-09-01T07:58:29.886Z,6.50
2022-09-01T08:00:31.938Z,6.90
2022-09-01T08:02:33.691Z,6.97
2022-09-01T08:04:36.401Z,5.30
2022-09-01T08:06:38.511Z,5.97
2022-09-01T08:08:41.448Z,6.40
2022-09-01T08:10:43.712Z,4.13
2022-09-01T08:12:46.768Z,5.10
2022-09-01T08:14:48.826Z,6.30
2022-09-01T08:17:16.810Z,6.20
2022-09-01T08:19:19.207Z,6.10
2022-09-01T08:21:24.225Z,6.57
2022-09-01T08:23:25.904Z,6.00
2022-09-01T08:25:29.076Z,6.67
2022-09-01T08:27:31.817Z,6.43
2022-09-01T08:29:35.310Z,6.00
2022-09-01T08:31:36.973Z,6.70
2022-09-01T08:33:57.387Z,7.40
2022-09-01T08:36:06.751Z,7.30
2022-09-01T08:38:09.030Z,6.97
2022-09-01T08:40:16.053Z,6.93
2022-09-01T08:42:27.061Z,7.07
2022-09-01T08:44:41.457Z,6.03
2022-09-01T08:46:43.990Z,6.53
2022-09-01T08:51:27.627Z,7.97
2022-09-01T08:56:28.919Z,6.50
2022-09-01T08:58:32.167Z,7.90
2022-09-01T09:00:42.620Z,9.57
2022-09-01T09:03:00.831Z,9.10
2022-09-01T09:05:22.137Z,9.90
2022-09-01T09:07:38.115Z,8.73
2022-09-01T09:09:51.106Z,6.57
2022-09-01T09:12:48.606Z,7.57
2022-09-01T09:15:10.598Z,5.70
2022-09-01T09:17:17.660Z,6.47
2022-09-01T09:19:23.995Z,6.60
2022-09-01T09:21:29.947Z,6.70
2022-09-01T09:23:39.295Z,5.80
2022-09-01T09:25:40.845Z,5.30
2022-09-01T09:27:44.296Z,5.80
2022-09-01T09:29:49.938Z,5.53
2022-09-01T09:32:03.958Z,5.63
2022-09-01T09:34:44.122Z,5.67
2022-09-01T09:36:52.369Z,5.13
2022-09-01T09:39:06.822Z,5.07
2022-09-01T09:41:20.019Z,4.60
2022-09-01T09:43:22.558Z,5.60
2022-09-01T09:45:32.104Z,5.83
2022-09-01T09:47:46.567Z,5.60
2022-09-01T09:50:10.404Z,6.23
2022-09-01T09:52:16.375Z,5.70
2022-09-01T09:54:22.396Z,5.43
2022-09-01T09:56:40.520Z,5.47
2022-09-01T09:58:45.360Z,4.70
2022-09-01T10:01:00.585Z,5.60
2022-09-01T10:03:08.909Z,4.77
2022-09-01T10:05:35.586Z,5.77
2022-09-01T10:07:37.987Z,5.90
2022-09-01T10:09:39.559Z,4.73
2022-09-01T10:11:43.383Z,5.20
2022-09-01T10:13:45.379Z,5.27
2022-09-01T10:15:51.311Z,5.27
2022-09-01T10:18:21.064Z,8.57
2022-09-01T10:20:27.901Z,5.80
2022-09-01T10:22:29.494Z,5.70
2022-09-01T10:24:33.832Z,5.07
2022-09-01T10:26:39.511Z,5.13
2022-09-01T10:28:54.721Z,5.10
2022-09-01T10:30:57.626Z,5.00
2022-09-01T10:33:11.014Z,4.97
2022-09-01T10:35:21.716Z,5.10
2022-09-01T10:37:27.488Z,6.20
2022-09-01T10:39:30.972Z,6.50
2022-09-01T10:42:01.381Z,5.63
2022-09-01T10:44:09.274Z,5.30
2022-09-01T10:46:48.976Z,6.13
2022-09-01T10:48:55.856Z,4.90
2022-09-01T10:51:50.163Z,4.93
2022-09-01T10:53:55.469Z,5.40
2022-09-01T10:56:04.882Z,4.80
2022-09-01T11:01:11.102Z,6.37
2022-09-01T11:03:51.456Z,5.63
2022-09-01T11:06:12.044Z,5.00
2022-09-01T11:08:40.220Z,7.00
2022-09-01T11:10:54.641Z,6.47
2022-09-01T11:13:35.010Z,5.37
2022-09-01T11:15:38.977Z,5.40
2022-09-01T11:17:55.752Z,5.00
2022-09-01T11:20:06.268Z,5.27
2022-09-01T11:22:26.378Z,4.20
2022-09-01T11:24:57.910Z,5.30
2022-09-01T11:27:06.251Z,4.70
2022-09-01T11:29:08.287Z,4.10
2022-09-01T11:31:40.144Z,4.73
2022-09-01T11:33:49.141Z,5.03
2022-09-01T11:36:00.950Z,3.97
2022-09-01T11:38:05.383Z,3.63
2022-09-01T11:40:08.453Z,4.03
2022-09-01T11:42:18.678Z,4.10
2022-09-01T11:44:25.166Z,3.33
2022-09-01T11:46:29.275Z,3.63
2022-09-01T11:48:31.030Z,3.63
2022-09-01T11:50:34.641Z,4.13
2022-09-01T11:52:38.802Z,3.97
2022-09-01T11:54:42.768Z,3.93
2022-09-01T11:56:44.501Z,4.43
2022-09-01T11:59:01.019Z,4.57
2022-09-01T12:01:14.274Z,4.77
2022-09-01T12:03:22.267Z,4.70
2022-09-01T12:05:30.628Z,4.90
2022-09-01T12:07:40.592Z,4.03
2022-09-01T12:09:44.543Z,4.53
2022-09-01T12:11:46.185Z,4.17
2022-09-01T12:13:58.769Z,4.70
2022-09-01T12:16:18.890Z,4.53
2022-09-01T12:18:55.691Z,4.87
2022-09-01T12:20:59.050Z,4.20
2022-09-01T12:23:01.187Z,3.23
2022-09-01T12:25:03.438Z,3.40
2022-09-01T12:27:05.230Z,3.37
2022-09-01T12:29:09.529Z,3.50
2022-09-01T12:31:14.706Z,4.13
2022-09-01T12:33:25.715Z,3.90
2022-09-01T12:35:27.592Z,4.60
2022-09-01T12:37:29.230Z,3.93
2022-09-01T12:39:36.771Z,4.70
2022-09-01T12:41:50.946Z,4.33
2022-09-01T12:43:54.831Z,4.57
2022-09-01T12:45:58.346Z,4.23
2022-09-01T12:48:00.006Z,4.10
2022-09-01T12:50:03.905Z,3.70
2022-09-01T12:52:11.104Z,3.73
2022-09-01T12:54:12.691Z,3.53
2022-09-01T12:56:22.552Z,3.27
2022-09-01T12:58:26.575Z,5.13
2022-09-01T13:00:29.848Z,3.90
2022-09-01T13:02:36.326Z,3.80
2022-09-01T13:04:38.112Z,4.20
2022-09-01T13:06:39.740Z,4.07
2022-09-01T13:08:41.318Z,4.50
2022-09-01T13:10:46.069Z,4.97
2022-09-01T13:12:47.744Z,4.80
2022-09-01T13:14:49.380Z,4.50
2022-09-01T13:16:51.231Z,4.07
2022-09-01T13:21:44.398Z,4.50
2022-09-01T13:23:48.841Z,4.10
2022-09-01T13:25:51.658Z,4.10
2022-09-01T13:27:54.047Z,4.67
2022-09-01T13:29:55.758Z,4.33
2022-09-01T13:34:22.987Z,4.33
2022-09-01T13:38:47.170Z,4.50
2022-09-01T13:41:30.155Z,3.80
2022-09-01T13:43:32.108Z,3.77
2022-09-01T13:45:33.937Z,4.97
2022-09-01T13:48:15.065Z,4.10
2022-09-01T13:50:08.595Z,3.63
2022-09-01T13:52:12.055Z,4.23
2022-09-01T13:54:13.589Z,3.97
2022-09-01T13:56:15.189Z,4.27
2022-09-01T13:58:17.219Z,4.13
2022-09-01T14:00:20.767Z,4.23
2022-09-01T14:02:22.653Z,6.13
2022-09-01T14:06:54.451Z,5.70
2022-09-01T14:08:56.096Z,4.47
2022-09-01T14:10:58.883Z,3.80
2022-09-01T14:13:00.726Z,3.60
2022-09-01T14:15:19.912Z,3.50
2022-09-01T14:17:24.005Z,4.60
2022-09-01T14:19:25.577Z,4.37
2022-09-01T14:21:27.443Z,4.60
2022-09-01T14:23:31.420Z,4.17
2022-09-01T14:25:33.751Z,4.27
2022-09-01T14:27:35.404Z,4.70
2022-09-01T14:31:38.465Z,5.10
2022-09-01T14:33:40.752Z,4.40
2022-09-01T14:35:43.996Z,5.20
2022-09-01T14:37:46.035Z,4.60
2022-09-01T14:42:19.517Z,4.20
2022-09-01T14:44:23.307Z,4.30
2022-09-01T14:46:25.139Z,3.80
2022-09-01T14:48:29.992Z,3.87
2022-09-01T14:50:32.220Z,4.13
2022-09-01T14:52:34.511Z,3.50
2022-09-01T14:54:37.862Z,4.10
2022-09-01T14:57:27.324Z,3.97
2022-09-01T14:59:38.081Z,4.07
2022-09-01T15:01:44.497Z,4.77
2022-09-01T15:03:48.618Z,4.13
2022-09-01T15:05:50.269Z,6.47
2022-09-01T15:07:52.299Z,6.00
2022-09-01T15:09:53.944Z,5.07
2022-09-01T15:11:59.380Z,3.87
2022-09-01T15:14:02.690Z,4.37
2022-09-01T15:16:39.035Z,4.70
2022-09-01T15:18:41.469Z,3.63
2022-09-01T15:20:43.195Z,4.20
2022-09-01T15:22:44.818Z,3.70
2022-09-01T15:24:46.901Z,4.27
2022-09-01T15:26:48.881Z,4.60
2022-09-01T15:28:52.203Z,4.57
2022-09-01T15:30:54.503Z,3.90
2022-09-01T15:32:58.869Z,4.20
2022-09-01T15:35:00.492Z,4.30
2022-09-01T15:37:02.427Z,4.20
2022-09-01T15:39:11.577Z,4.87
2022-09-01T15:41:17.098Z,4.40
2022-09-01T15:43:22.511Z,4.13
2022-09-01T15:45:27.652Z,4.40
2022-09-01T15:47:29.640Z,4.57
2022-09-01T15:49:31.284Z,4.60
2022-09-01T15:51:35.056Z,4.53
2022-09-01T15:53:36.774Z,4.53
2022-09-01T15:55:40.944Z,4.53
2022-09-01T15:57:42.962Z,4.33
2022-09-01T16:00:23.681Z,4.30
2022-09-01T16:02:28.657Z,4.40
2022-09-01T16:04:30.314Z,6.30
2022-09-01T16:06:32.128Z,5.33
2022-09-01T16:08:35.034Z,5.00
2022-09-01T16:10:38.509Z,4.50
2022-09-01T16:12:42.273Z,4.00
2022-09-01T16:14:44.021Z,4.10
2022-09-01T16:16:53.300Z,4.27
2022-09-01T16:19:01.714Z,4.33
2022-09-01T16:21:09.851Z,4.97
2022-09-01T16:23:15.343Z,4.90
2022-09-01T16:25:25.300Z,3.67
2022-09-01T16:27:32.090Z,4.70
2022-09-01T16:29:43.289Z,4.63
2022-09-01T16:31:51.296Z,4.27
2022-09-01T16:33:55.296Z,4.30
2022-09-01T16:36:15.195Z,4.63
2022-09-01T16:38:29.960Z,4.40
2022-09-01T16:40:44.221Z,4.60
2022-09-01T16:43:06.257Z,4.57
2022-09-01T16:45:26.711Z,5.37
2022-09-01T16:47:44.890Z,4.70
2022-09-01T16:49:57.516Z,4.67
2022-09-01T16:52:03.549Z,4.47
2022-09-01T16:54:17.547Z,4.73
2022-09-01T16:56:27.387Z,4.50
2022-09-01T16:58:44.357Z,4.23
2022-09-01T17:01:02.295Z,4.00
2022-09-01T17:03:34.309Z,4.67
2022-09-01T17:05:53.892Z,5.13
2022-09-01T17:08:05.511Z,5.57
2022-09-01T17:10:17.257Z,4.67
2022-09-01T17:12:27.980Z,4.53
2022-09-01T17:14:37.565Z,5.10
2022-09-01T17:16:43.764Z,4.80
2022-09-01T17:18:50.020Z,5.03
2022-09-01T17:20:59.267Z,5.70
2022-09-01T17:23:09.586Z,4.70
2022-09-01T17:25:29.567Z,4.90
2022-09-01T17:27:35.489Z,5.30
2022-09-01T17:29:42.407Z,5.60
2022-09-01T17:31:52.144Z,5.00
2022-09-01T17:34:02.635Z,9.60
2022-09-01T17:36:15.829Z,7.73
2022-09-01T17:38:27.089Z,5.20
2022-09-01T17:43:24.901Z,5.40
2022-09-01T17:45:34.040Z,4.80
2022-09-01T17:47:52.764Z,5.30
2022-09-01T17:50:03.410Z,4.57
2022-09-01T17:52:14.349Z,4.80
2022-09-01T17:54:26.739Z,4.73
2022-09-01T17:56:39.665Z,4.50
2022-09-01T17:58:50.865Z,5.60
2022-09-01T18:01:02.338Z,4.67
2022-09-01T18:03:53.401Z,5.23
2022-09-01T18:06:02.494Z,4.33
2022-09-01T18:08:15.571Z,4.50
2022-09-01T18:10:28.576Z,5.00
2022-09-01T18:12:33.924Z,4.67
2022-09-01T18:14:41.540Z,4.30
2022-09-01T18:16:57.957Z,5.70
2022-09-01T18:19:04.621Z,5.50
2022-09-01T18:21:14.960Z,5.47
2022-09-01T18:23:34.176Z,5.33
2022-09-01T18:25:39.925Z,4.77
2022-09-01T18:27:44.560Z,5.60
2022-09-01T18:29:48.957Z,4.50
2022-09-01T18:32:09.222Z,4.60
2022-09-01T18:34:22.781Z,4.40
2022-09-01T18:36:32.730Z,4.07
2022-09-01T18:38:41.904Z,5.70
2022-09-01T18:40:57.944Z,4.00
2022-09-01T18:43:41.144Z,4.70
2022-09-01T18:45:49.066Z,4.30
2022-09-01T18:47:58.612Z,4.50
2022-09-01T18:50:12.236Z,4.77
2022-09-01T18:52:41.647Z,4.23
2022-09-01T18:54:50.924Z,4.13
2022-09-01T18:56:57.333Z,5.00
2022-09-01T18:59:36.916Z,4.27
2022-09-01T19:02:22.538Z,4.40
2022-09-01T19:04:30.258Z,4.30
2022-09-01T19:06:40.033Z,4.60
2022-09-01T19:08:53.507Z,4.57
2022-09-01T19:11:00.303Z,4.60
2022-09-01T19:13:12.950Z,4.60
2022-09-01T19:15:22.888Z,5.70
2022-09-01T19:17:45.239Z,5.43
2022-09-01T19:20:05.021Z,4.20
2022-09-01T19:25:08.038Z,4.60
2022-09-01T19:27:12.910Z,4.57
2022-09-01T19:29:20.496Z,4.00
2022-09-01T19:31:25.329Z,3.93
2022-09-01T19:33:33.639Z,4.33
2022-09-01T19:35:43.558Z,4.30
2022-09-01T19:37:48.087Z,4.40
2022-09-01T19:39:54.225Z,5.03
2022-09-01T19:42:08.772Z,4.63
2022-09-01T19:44:19.938Z,4.40
2022-09-01T19:46:30.723Z,4.13
2022-09-01T19:48:38.331Z,4.47
2022-09-01T19:50:48.349Z,3.83
2022-09-01T19:52:55.176Z,4.20
2022-09-01T19:55:02.468Z,4.20
2022-09-01T19:57:14.258Z,4.30
2022-09-01T19:59:51.297Z,4.47
2022-09-01T20:01:57.363Z,5.00
2022-09-01T20:04:14.842Z,4.20
2022-09-01T20:08:39.847Z,4.37
2022-09-01T20:10:56.414Z,4.00
2022-09-01T20:13:22.329Z,4.97
2022-09-01T20:15:43.802Z,4.63
2022-09-01T20:18:02.061Z,4.50
2022-09-01T20:20:10.655Z,5.20
2022-09-01T20:22:24.588Z,5.23
2022-09-01T20:24:36.141Z,5.03
2022-09-01T20:26:44.491Z,5.83
2022-09-01T20:28:52.910Z,5.00
2022-09-01T20:31:03.743Z,5.30
2022-09-01T20:33:13.215Z,4.77
2022-09-01T20:35:25.522Z,5.37
2022-09-01T20:40:26.481Z,4.60
2022-09-01T20:42:36.763Z,5.80
2022-09-01T20:44:50.347Z,4.30
2022-09-01T20:46:53.335Z,4.87
2022-09-01T20:48:54.960Z,4.60
2022-09-01T20:51:01.070Z,5.20
2022-09-01T20:53:17.466Z,5.27
2022-09-01T20:55:28.472Z,5.10
2022-09-01T20:57:40.287Z,4.93
2022-09-01T21:02:27.231Z,4.67
2022-09-01T21:04:40.062Z,4.30
2022-09-01T21:06:50.208Z,4.60
2022-09-01T21:09:01.679Z,5.60
2022-09-01T21:11:21.094Z,5.60
2022-09-01T21:13:50.529Z,5.33
2022-09-01T21:15:58.956Z,4.90
2022-09-01T21:20:49.912Z,5.30
2022-09-01T21:22:54.266Z,5.07
2022-09-01T21:24:58.122Z,5.17
2022-09-01T21:27:02.316Z,5.30
2022-09-01T21:29:19.016Z,4.30
2022-09-01T21:31:20.764Z,4.37
2022-09-01T21:33:25.725Z,4.77
2022-09-01T21:35:27.470Z,4.80
2022-09-01T21:37:29.796Z,4.70
2022-09-01T21:39:51.895Z,4.60
2022-09-01T21:41:54.123Z,4.80
2022-09-01T21:43:55.703Z,5.47
2022-09-01T21:45:57.440Z,4.70
2022-09-01T21:47:59.082Z,4.90
2022-09-01T21:50:02.347Z,4.33
2022-09-01T21:52:06.447Z,4.97
2022-09-01T21:54:08.531Z,5.00
2022-09-01T21:56:10.254Z,4.97
2022-09-01T21:58:11.913Z,4.77
2022-09-01T22:00:16.805Z,4.80
2022-09-01T22:02:34.407Z,6.23
2022-09-01T22:04:37.580Z,5.10
2022-09-01T22:06:40.891Z,5.30
2022-09-01T22:08:42.481Z,5.30
2022-09-01T22:10:47.313Z,5.47
2022-09-01T22:12:49.796Z,5.23
2022-09-01T22:14:51.342Z,5.33
2022-09-01T22:16:53.807Z,5.10
2022-09-01T22:19:01.626Z,5.10
2022-09-01T22:21:35.231Z,4.90
2022-09-01T22:23:38.601Z,4.67
2022-09-01T22:25:42.005Z,5.40
2022-09-01T22:27:43.785Z,4.50
2022-09-01T22:29:48.897Z,5.80
2022-09-01T22:31:50.929Z,4.40
2022-09-01T22:33:53.159Z,4.50
2022-09-01T22:35:56.142Z,5.73
2022-09-01T22:37:57.722Z,5.03
2022-09-01T22:40:00.763Z,4.53
2022-09-01T22:42:02.553Z,4.77
2022-09-01T22:44:04.269Z,5.10
2022-09-01T22:46:06.377Z,5.57
2022-09-01T22:48:08.798Z,4.93
2022-09-01T22:50:11.125Z,5.57
2022-09-01T22:52:13.954Z,6.30
2022-09-01T22:54:15.711Z,5.70
2022-09-01T22:56:24.969Z,5.47
2022-09-01T23:00:49.756Z,4.87
2022-09-01T23:02:51.452Z,4.70
2022-09-01T23:04:53.024Z,5.03
2022-09-01T23:06:54.594Z,5.23
2022-09-01T23:08:57.151Z,4.73
2022-09-01T23:10:58.793Z,4.83
2022-09-01T23:13:01.778Z,4.60
2022-09-01T23:15:03.947Z,5.57
2022-09-01T23:17:05.737Z,4.53
2022-09-01T23:19:38.224Z,5.37
2022-09-01T23:21:40.496Z,4.40
2022-09-01T23:23:42.244Z,5.27
2022-09-01T23:25:44.339Z,4.60
2022-09-01T23:27:46.111Z,5.13
2022-09-01T23:29:49.070Z,5.23
2022-09-01T23:31:50.768Z,5.00
2022-09-01T23:33:52.909Z,4.70
2022-09-01T23:36:26.549Z,4.63
2022-09-01T23:38:47.424Z,5.00
2022-09-01T23:40:52.179Z,4.60
2022-09-01T23:42:53.759Z,4.57
2022-09-01T23:44:56.677Z,4.30
2022-09-01T23:46:58.342Z,5.53
2022-09-01T23:49:03.067Z,5.20
2022-09-01T23:51:08.738Z,5.40
2022-09-01T23:53:10.291Z,5.30
2022-09-01T23:55:12.177Z,4.73
2022-09-01T23:57:13.804Z,5.40
2022-09-01T23:59:15.644Z,5.10
